createdAt,value
2022-12-28T00:01:46.829Z,7.00
2022-12-28T00:04:16.235Z,7.03
2022-12-28T00:06:47.674Z,6.87
2022-12-28T00:09:16.885Z,6.97
2022-12-28T00:11:46.775Z,7.17
2022-12-28T00:14:16.037Z,7.28
2022-12-28T00:16:45.538Z,7.40
2022-12-28T00:19:16.619Z,7.40
2022-12-28T00:21:47.026Z,6.87
2022-12-28T00:24:22.393Z,7.10
2022-12-28T00:26:52.478Z,7.03
2022-12-28T00:29:21.743Z,7.55
2022-12-28T00:31:52.354Z,7.50
2022-12-28T00:34:23.266Z,7.50
2022-12-28T00:37:09.573Z,6.92
2022-12-28T00:39:24.362Z,7.97
2022-12-28T00:41:53.742Z,7.85
2022-12-28T00:44:22.928Z,7.92
2022-12-28T00:46:52.424Z,8.18
2022-12-28T00:49:21.714Z,7.60
2022-12-28T00:51:51.238Z,8.38
2022-12-28T00:54:20.427Z,7.87
2022-12-28T00:56:50.171Z,7.78
2022-12-28T00:59:19.390Z,7.47
2022-12-28T01:01:49.069Z,7.72
2022-12-28T01:04:18.349Z,7.28
2022-12-28T01:06:47.811Z,7.40
2022-12-28T01:09:17.061Z,7.17
2022-12-28T01:11:46.615Z,7.58
2022-12-28T01:14:16.701Z,7.67
2022-12-28T01:16:47.932Z,7.12
2022-12-28T01:19:22.483Z,7.00
2022-12-28T01:21:52.656Z,7.65
2022-12-28T01:24:22.047Z,7.17
2022-12-28T01:26:51.270Z,7.30
2022-12-28T01:29:20.688Z,7.20
2022-12-28T01:31:50.481Z,7.78
2022-12-28T01:34:19.775Z,7.60
2022-12-28T01:36:49.032Z,7.20
2022-12-28T01:39:18.557Z,7.37
2022-12-28T01:41:48.127Z,7.37
2022-12-28T01:44:26.536Z,7.55
2022-12-28T01:47:07.875Z,7.10
2022-12-28T01:49:44.463Z,7.33
2022-12-28T01:52:21.172Z,7.40
2022-12-28T01:55:06.655Z,7.95
2022-12-28T01:57:39.035Z,7.75
2022-12-28T02:00:11.148Z,8.43
2022-12-28T02:02:48.150Z,8.25
2022-12-28T02:05:17.811Z,8.53
2022-12-28T02:07:53.633Z,8.63
2022-12-28T02:10:43.410Z,8.83
2022-12-28T02:12:55.691Z,9.03
2022-12-28T02:15:25.531Z,9.43
2022-12-28T02:17:54.791Z,9.68
2022-12-28T02:20:28.739Z,8.83
2022-12-28T02:23:06.999Z,9.48
2022-12-28T02:25:54.558Z,9.33
2022-12-28T02:28:43.569Z,9.63
2022-12-28T02:31:25.179Z,9.78
2022-12-28T02:34:13.462Z,10.93
2022-12-28T02:36:45.875Z,11.25
2022-12-28T02:39:18.586Z,11.57
2022-12-28T02:41:49.682Z,12.28
2022-12-28T02:44:21.418Z,11.75
2022-12-28T02:47:10.209Z,11.53
2022-12-28T02:49:57.487Z,11.90
2022-12-28T02:52:42.138Z,11.90
2022-12-28T02:55:32.826Z,10.78
2022-12-28T02:58:21.776Z,11.63
2022-12-28T03:00:57.389Z,10.90
2022-12-28T03:03:46.580Z,11.60
2022-12-28T03:07:02.593Z,10.98
2022-12-28T03:09:49.626Z,11.20
2022-12-28T03:12:28.066Z,10.78
2022-12-28T03:15:09.825Z,11.10
2022-12-28T03:17:59.272Z,11.00
2022-12-28T03:20:49.712Z,10.88
2022-12-28T03:23:39.091Z,10.58
2022-12-28T03:26:28.626Z,10.65
2022-12-28T03:29:16.617Z,10.45
2022-12-28T03:31:46.359Z,10.38
2022-12-28T03:34:16.838Z,10.75
2022-12-28T03:37:07.406Z,10.85
2022-12-28T03:39:52.011Z,10.60
2022-12-28T03:42:55.539Z,10.75
2022-12-28T03:45:46.041Z,10.35
2022-12-28T03:48:05.316Z,10.88
2022-12-28T03:50:40.514Z,10.93
2022-12-28T03:53:11.177Z,10.75
2022-12-28T03:55:43.008Z,11.25
2022-12-28T03:58:13.018Z,11.30
2022-12-28T04:00:43.692Z,10.70
2022-12-28T04:03:13.271Z,11.43
2022-12-28T04:05:42.563Z,10.75
2022-12-28T04:08:12.267Z,10.68
2022-12-28T04:10:41.551Z,11.38
2022-12-28T04:13:11.143Z,10.25
2022-12-28T04:16:01.683Z,10.45
2022-12-28T04:18:33.130Z,10.55
2022-12-28T04:21:02.592Z,9.70
2022-12-28T04:23:32.832Z,9.70
2022-12-28T04:26:22.083Z,9.38
2022-12-28T04:28:53.444Z,8.78
2022-12-28T04:31:24.449Z,8.90
2022-12-28T04:33:59.859Z,7.83
2022-12-28T04:36:30.661Z,7.87
2022-12-28T04:39:01.516Z,7.40
2022-12-28T04:41:30.747Z,7.78
2022-12-28T04:44:00.034Z,7.70
2022-12-28T04:46:29.405Z,7.12
2022-12-28T04:48:58.641Z,7.05
2022-12-28T04:51:29.196Z,6.40
2022-12-28T04:53:59.107Z,6.30
2022-12-28T04:56:29.016Z,6.50
2022-12-28T04:59:00.441Z,6.20
2022-12-28T05:01:30.256Z,5.95
2022-12-28T05:04:00.497Z,5.85
2022-12-28T05:06:30.182Z,5.55
2022-12-28T05:08:59.645Z,5.22
2022-12-28T05:11:30.417Z,5.30
2022-12-28T05:13:59.747Z,5.05
2022-12-28T05:16:30.735Z,4.85
2022-12-28T05:19:00.137Z,4.50
2022-12-28T05:21:30.526Z,4.53
2022-12-28T05:23:59.813Z,4.70
2022-12-28T05:26:30.769Z,5.17
2022-12-28T05:29:00.627Z,4.75
2022-12-28T05:31:30.301Z,5.20
2022-12-28T05:33:59.713Z,4.90
2022-12-28T05:36:29.284Z,4.95
2022-12-28T05:38:58.516Z,5.12
2022-12-28T05:41:29.786Z,5.05
2022-12-28T05:44:00.329Z,5.20
2022-12-28T05:46:33.058Z,4.58
2022-12-28T05:49:03.174Z,4.72
2022-12-28T05:51:33.615Z,4.70
2022-12-28T05:54:07.082Z,5.15
2022-12-28T05:56:36.564Z,4.72
2022-12-28T05:59:08.320Z,4.58
2022-12-28T06:01:40.026Z,4.43
2022-12-28T06:04:14.709Z,4.58
2022-12-28T06:06:45.074Z,4.30
2022-12-28T06:09:15.339Z,4.33
2022-12-28T06:11:46.001Z,4.45
2022-12-28T06:14:15.551Z,4.10
2022-12-28T06:16:46.039Z,4.62
2022-12-28T06:19:15.973Z,4.67
2022-12-28T06:21:45.753Z,3.80
2022-12-28T06:24:15.614Z,3.80
2022-12-28T06:26:44.816Z,4.08
2022-12-28T06:29:14.254Z,4.20
2022-12-28T06:31:47.294Z,4.40
2022-12-28T06:34:16.887Z,4.53
2022-12-28T06:36:47.815Z,3.87
2022-12-28T06:39:17.125Z,3.72
2022-12-28T06:41:46.501Z,3.92
2022-12-28T06:44:16.183Z,4.00
2022-12-28T06:46:45.862Z,3.70
2022-12-28T06:49:15.065Z,3.75
2022-12-28T06:51:44.520Z,3.65
2022-12-28T06:54:13.738Z,4.30
2022-12-28T06:56:43.405Z,3.70
2022-12-28T06:59:12.648Z,3.90
2022-12-28T07:01:45.223Z,3.83
2022-12-28T07:04:14.901Z,4.33
2022-12-28T07:06:45.241Z,4.40
2022-12-28T07:09:16.473Z,3.90
2022-12-28T07:11:46.052Z,4.03
2022-12-28T07:14:15.665Z,3.90
2022-12-28T07:16:45.249Z,4.17
2022-12-28T07:19:14.511Z,4.37
2022-12-28T07:21:43.709Z,3.92
2022-12-28T07:24:13.583Z,4.12
2022-12-28T07:26:43.005Z,3.70
2022-12-28T07:29:12.313Z,3.80
2022-12-28T07:31:45.681Z,3.90
2022-12-28T07:34:14.632Z,3.70
2022-12-28T07:36:44.248Z,3.98
2022-12-28T07:39:13.526Z,3.75
2022-12-28T07:41:42.940Z,3.65
2022-12-28T07:44:12.261Z,3.60
2022-12-28T07:46:41.732Z,3.55
2022-12-28T07:49:10.948Z,3.80
2022-12-28T07:51:40.687Z,3.72
2022-12-28T07:54:09.921Z,3.70
2022-12-28T07:59:07.933Z,4.05
2022-12-28T08:01:38.526Z,3.55
2022-12-28T08:04:10.027Z,3.12
2022-12-28T08:06:41.898Z,3.40
2022-12-28T08:09:13.532Z,3.60
2022-12-28T08:11:45.440Z,3.65
2022-12-28T08:14:14.644Z,3.70
2022-12-28T08:16:45.075Z,3.87
2022-12-28T08:19:14.736Z,4.00
2022-12-28T08:21:46.845Z,3.77
2022-12-28T08:24:20.361Z,4.35
2022-12-28T08:26:51.094Z,4.58
2022-12-28T08:29:22.332Z,4.08
2022-12-28T08:31:51.825Z,3.90
2022-12-28T08:34:27.337Z,3.90
2022-12-28T08:36:57.318Z,4.53
2022-12-28T08:39:26.523Z,3.80
2022-12-28T08:41:56.930Z,4.30
2022-12-28T08:44:26.451Z,3.65
2022-12-28T08:46:56.530Z,4.17
2022-12-28T08:49:25.788Z,4.20
2022-12-28T08:51:55.102Z,4.15
2022-12-28T08:54:24.565Z,4.40
2022-12-28T08:56:54.506Z,4.30
2022-12-28T08:59:23.957Z,4.58
2022-12-28T09:01:53.290Z,4.37
2022-12-28T09:04:23.701Z,4.80
2022-12-28T09:06:53.016Z,5.30
2022-12-28T09:09:22.271Z,4.70
2022-12-28T09:11:52.140Z,4.67
2022-12-28T09:14:24.217Z,5.00
2022-12-28T09:16:54.139Z,5.30
2022-12-28T09:19:23.923Z,5.60
2022-12-28T09:21:55.688Z,5.70
2022-12-28T09:24:25.315Z,5.47
2022-12-28T09:26:55.333Z,5.65
2022-12-28T09:29:24.779Z,5.87
2022-12-28T09:31:54.212Z,6.03
2022-12-28T09:34:35.377Z,6.30
2022-12-28T09:36:54.638Z,5.60
2022-12-28T09:39:25.056Z,5.70
2022-12-28T09:42:15.864Z,6.05
2022-12-28T09:44:50.664Z,5.53
2022-12-28T09:47:29.107Z,5.22
2022-12-28T09:50:19.661Z,5.00
2022-12-28T09:53:20.137Z,5.15
2022-12-28T09:56:07.481Z,5.17
2022-12-28T09:58:40.436Z,5.10
2022-12-28T10:01:13.567Z,5.35
2022-12-28T10:03:43.992Z,4.80
2022-12-28T10:06:18.997Z,5.08
2022-12-28T10:08:50.828Z,5.00
2022-12-28T10:11:28.988Z,4.83
2022-12-28T10:14:00.906Z,5.08
2022-12-28T10:16:36.836Z,6.03
2022-12-28T10:19:07.497Z,5.95
2022-12-28T10:21:37.236Z,6.25
2022-12-28T10:26:39.824Z,6.47
2022-12-28T10:29:11.914Z,7.20
2022-12-28T10:31:43.494Z,6.83
2022-12-28T10:34:22.011Z,7.03
2022-12-28T10:36:52.010Z,6.95
2022-12-28T10:39:29.364Z,6.78
2022-12-28T10:42:00.624Z,6.83
2022-12-28T10:44:40.077Z,7.00
2022-12-28T10:47:30.774Z,6.87
2022-12-28T10:50:36.126Z,6.55
2022-12-28T10:52:31.512Z,6.85
2022-12-28T10:55:08.268Z,6.65
2022-12-28T10:57:32.733Z,6.42
2022-12-28T11:00:16.772Z,6.37
2022-12-28T11:02:47.628Z,6.70
2022-12-28T11:05:22.151Z,6.65
2022-12-28T11:07:53.772Z,6.80
2022-12-28T11:10:33.341Z,7.05
2022-12-28T11:13:03.370Z,6.28
2022-12-28T11:15:34.004Z,6.10
2022-12-28T11:18:09.609Z,6.67
2022-12-28T11:20:42.486Z,6.78
2022-12-28T11:23:20.795Z,7.20
2022-12-28T11:25:50.561Z,6.53
2022-12-28T11:28:22.414Z,6.80
2022-12-28T11:30:52.880Z,7.00
2022-12-28T11:33:31.846Z,6.53
2022-12-28T11:36:05.661Z,6.90
2022-12-28T11:38:42.629Z,6.50
2022-12-28T11:41:26.463Z,7.20
2022-12-28T11:44:05.337Z,6.92
2022-12-28T11:46:37.742Z,6.10
2022-12-28T11:49:26.942Z,6.17
2022-12-28T11:52:23.779Z,6.03
2022-12-28T11:54:57.848Z,6.75
2022-12-28T11:57:38.450Z,6.53
2022-12-28T12:00:25.514Z,6.40
2022-12-28T12:02:57.393Z,6.35
2022-12-28T12:05:38.799Z,6.17
2022-12-28T12:08:17.636Z,6.85
2022-12-28T12:10:48.521Z,7.28
2022-12-28T12:13:30.688Z,7.08
2022-12-28T12:16:06.797Z,7.28
2022-12-28T12:18:50.135Z,6.90
2022-12-28T12:21:25.256Z,7.10
2022-12-28T12:24:00.317Z,6.45
2022-12-28T12:26:35.304Z,6.40
2022-12-28T12:29:07.715Z,6.40
2022-12-28T12:31:40.220Z,6.47
2022-12-28T12:34:19.461Z,5.90
2022-12-28T12:37:09.134Z,5.67
2022-12-28T12:39:53.460Z,5.70
2022-12-28T12:42:43.829Z,5.60
2022-12-28T12:45:48.391Z,5.60
2022-12-28T12:48:40.910Z,5.15
2022-12-28T12:51:30.049Z,5.40
2022-12-28T12:54:05.680Z,5.28
2022-12-28T12:56:38.190Z,5.10
2022-12-28T12:59:35.304Z,4.90
2022-12-28T13:02:33.528Z,4.08
2022-12-28T13:05:04.396Z,4.83
2022-12-28T13:07:34.299Z,4.62
2022-12-28T13:10:05.030Z,4.37
2022-12-28T13:12:34.253Z,4.58
2022-12-28T13:15:12.293Z,4.12
2022-12-28T13:17:36.547Z,4.30
2022-12-28T13:20:20.425Z,4.17
2022-12-28T13:22:50.596Z,4.60
2022-12-28T13:25:31.984Z,3.87
2022-12-28T13:28:03.932Z,4.12
2022-12-28T13:30:33.270Z,4.03
2022-12-28T13:33:03.511Z,3.87
2022-12-28T13:35:34.608Z,3.75
2022-12-28T13:38:15.101Z,3.77
2022-12-28T13:40:52.571Z,3.90
2022-12-28T13:43:43.436Z,3.72
2022-12-28T13:46:14.660Z,4.03
2022-12-28T13:48:47.224Z,3.77
2022-12-28T13:51:18.380Z,3.83
2022-12-28T13:53:51.180Z,4.28
2022-12-28T13:56:21.683Z,4.05
2022-12-28T13:58:53.848Z,3.80
2022-12-28T14:01:29.416Z,3.85
2022-12-28T14:04:33.549Z,3.90
2022-12-28T14:06:33.493Z,3.72
2022-12-28T14:09:05.808Z,3.67
2022-12-28T14:11:34.253Z,3.98
2022-12-28T14:14:05.304Z,3.62
2022-12-28T14:16:34.861Z,3.85
2022-12-28T14:19:05.437Z,3.60
2022-12-28T14:21:41.030Z,3.47
2022-12-28T14:24:13.068Z,3.40
2022-12-28T14:26:50.844Z,3.33
2022-12-28T14:29:34.289Z,3.30
2022-12-28T14:32:06.757Z,3.45
2022-12-28T14:34:38.819Z,3.35
2022-12-28T14:37:10.233Z,3.30
2022-12-28T14:39:43.791Z,3.42
2022-12-28T14:42:25.473Z,3.22
2022-12-28T14:44:56.759Z,3.25
2022-12-28T14:47:46.844Z,3.12
2022-12-28T14:50:28.072Z,3.37
2022-12-28T14:53:12.361Z,3.25
2022-12-28T14:56:15.265Z,3.17
2022-12-28T14:58:54.591Z,3.27
2022-12-28T15:01:26.031Z,2.98
2022-12-28T15:04:01.467Z,2.87
2022-12-28T15:06:32.492Z,3.08
2022-12-28T15:09:03.847Z,2.75
2022-12-28T15:11:33.485Z,2.70
2022-12-28T15:14:02.728Z,2.60
2022-12-28T15:16:32.340Z,2.98
2022-12-28T15:19:01.746Z,2.90
2022-12-28T15:21:33.304Z,3.05
2022-12-28T15:24:02.739Z,3.00
2022-12-28T15:26:31.959Z,2.90
2022-12-28T15:29:04.373Z,3.45
2022-12-28T15:31:33.634Z,3.22
2022-12-28T15:34:02.865Z,3.70
2022-12-28T15:36:32.075Z,4.30
2022-12-28T15:39:02.594Z,3.45
2022-12-28T15:41:46.909Z,3.87
2022-12-28T15:44:21.281Z,4.03
2022-12-28T15:46:50.924Z,3.55
2022-12-28T15:49:20.356Z,3.42
2022-12-28T15:51:49.917Z,3.98
2022-12-28T15:54:19.393Z,3.72
2022-12-28T15:56:56.536Z,3.77
2022-12-28T15:59:26.581Z,3.67
2022-12-28T16:01:56.725Z,3.60
2022-12-28T16:04:26.363Z,4.08
2022-12-28T16:06:56.318Z,4.17
2022-12-28T16:09:25.621Z,4.22
2022-12-28T16:11:55.576Z,4.30
2022-12-28T16:14:24.963Z,4.58
2022-12-28T16:16:54.316Z,5.12
2022-12-28T16:19:23.871Z,6.87
2022-12-28T16:21:53.150Z,6.70
2022-12-28T16:24:22.542Z,6.47
2022-12-28T16:26:52.217Z,9.40
2022-12-28T16:29:21.943Z,8.03
2022-12-28T16:31:52.592Z,10.65
2022-12-28T16:34:21.883Z,7.45
2022-12-28T16:36:53.300Z,7.80
2022-12-28T16:39:22.507Z,8.18
2022-12-28T16:41:51.777Z,7.00
2022-12-28T16:44:24.183Z,8.90
2022-12-28T16:46:55.227Z,7.92
2022-12-28T16:49:24.689Z,7.78
2022-12-28T16:51:54.029Z,10.95
2022-12-28T16:54:25.479Z,7.00
2022-12-28T16:56:55.640Z,8.35
2022-12-28T16:59:29.007Z,6.60
2022-12-28T17:01:59.942Z,6.58
2022-12-28T17:04:29.244Z,7.03
2022-12-28T17:06:59.721Z,6.50
2022-12-28T17:09:28.967Z,5.85
2022-12-28T17:11:58.790Z,7.45
2022-12-28T17:14:43.350Z,5.90
2022-12-28T17:17:00.164Z,5.62
2022-12-28T17:19:29.479Z,7.70
2022-12-28T17:21:59.090Z,8.73
2022-12-28T17:24:28.286Z,9.50
2022-12-28T17:27:03.457Z,8.83
2022-12-28T17:29:28.599Z,13.45
2022-12-28T17:31:58.080Z,8.68
2022-12-28T17:34:28.914Z,8.60
2022-12-28T17:36:58.530Z,8.40
2022-12-28T17:39:27.753Z,9.10
2022-12-28T17:41:57.037Z,9.28
2022-12-28T17:44:26.416Z,8.15
2022-12-28T17:46:55.659Z,8.35
2022-12-28T17:49:25.220Z,8.38
2022-12-28T17:51:54.446Z,6.97
2022-12-28T17:54:24.093Z,6.15
2022-12-28T17:56:53.349Z,6.47
2022-12-28T17:59:22.840Z,6.55
2022-12-28T18:01:53.752Z,6.20
2022-12-28T18:04:23.537Z,6.67
2022-12-28T18:06:52.895Z,7.20
2022-12-28T18:09:27.368Z,9.75
2022-12-28T18:11:53.284Z,10.43
2022-12-28T18:14:23.391Z,8.20
2022-12-28T18:16:52.885Z,7.60
2022-12-28T18:19:22.801Z,6.67
2022-12-28T18:21:52.471Z,6.70
2022-12-28T18:24:22.346Z,7.80
2022-12-28T18:26:51.713Z,8.95
2022-12-28T18:29:20.979Z,8.58
2022-12-28T18:31:50.781Z,7.78
2022-12-28T18:34:19.979Z,7.92
2022-12-28T18:36:49.684Z,8.73
2022-12-28T18:39:19.050Z,8.58
2022-12-28T18:41:48.310Z,8.83
2022-12-28T18:44:18.225Z,10.50
2022-12-28T18:46:48.028Z,12.37
2022-12-28T18:49:17.377Z,8.83
2022-12-28T18:51:47.117Z,9.48
2022-12-28T18:54:17.006Z,10.20
2022-12-28T18:56:46.516Z,10.55
2022-12-28T18:59:15.846Z,8.45
2022-12-28T19:04:17.869Z,9.65
2022-12-28T19:06:48.041Z,9.53
2022-12-28T19:09:18.078Z,13.55
2022-12-28T19:11:47.497Z,12.78
2022-12-28T19:14:17.489Z,10.80
2022-12-28T19:16:47.098Z,11.55
2022-12-28T19:19:17.895Z,10.88
2022-12-28T19:21:47.625Z,10.88
2022-12-28T19:24:19.447Z,9.70
2022-12-28T19:26:48.882Z,10.90
2022-12-28T19:29:19.741Z,9.33
2022-12-28T19:31:49.049Z,12.60
2022-12-28T19:34:18.655Z,11.78
2022-12-28T19:36:48.272Z,12.13
2022-12-28T19:39:17.947Z,14.98
2022-12-28T19:41:47.460Z,22.87
2022-12-28T19:44:18.908Z,20.20
2022-12-28T19:46:49.383Z,16.57
2022-12-28T19:49:19.367Z,13.95
2022-12-28T19:51:49.078Z,15.75
2022-12-28T19:54:18.791Z,14.70
2022-12-28T19:56:48.437Z,15.28
2022-12-28T19:59:17.757Z,14.03
2022-12-28T20:01:47.465Z,15.08
2022-12-28T20:04:17.276Z,13.03
2022-12-28T20:06:47.336Z,12.80
2022-12-28T20:09:16.699Z,13.22
2022-12-28T20:11:46.094Z,12.58
2022-12-28T20:14:19.292Z,12.28
2022-12-28T20:16:47.355Z,13.48
2022-12-28T20:19:16.864Z,13.83
2022-12-28T20:21:46.170Z,11.80
2022-12-28T20:24:16.764Z,10.38
2022-12-28T20:26:46.089Z,10.05
2022-12-28T20:29:16.775Z,10.30
2022-12-28T20:31:46.278Z,12.25
2022-12-28T20:34:16.281Z,11.20
2022-12-28T20:36:45.615Z,8.65
2022-12-28T20:39:15.244Z,7.80
2022-12-28T20:42:02.393Z,7.75
2022-12-28T20:44:34.225Z,9.13
2022-12-28T20:47:05.309Z,6.95
2022-12-28T20:49:35.961Z,6.95
2022-12-28T20:52:05.268Z,7.97
2022-12-28T20:54:35.058Z,8.08
2022-12-28T20:57:04.389Z,7.00
2022-12-28T20:59:34.434Z,7.37
2022-12-28T21:02:03.822Z,6.90
2022-12-28T21:04:33.337Z,6.78
2022-12-28T21:07:02.622Z,6.50
2022-12-28T21:09:32.797Z,6.85
2022-12-28T21:12:02.240Z,6.72
2022-12-28T21:14:31.988Z,5.95
2022-12-28T21:17:01.857Z,6.12
2022-12-28T21:19:31.126Z,6.45
2022-12-28T21:22:00.546Z,5.85
2022-12-28T21:24:29.957Z,6.05
2022-12-28T21:26:59.715Z,5.60
2022-12-28T21:29:31.215Z,5.67
2022-12-28T21:32:00.823Z,5.75
2022-12-28T21:34:30.834Z,5.67
2022-12-28T21:37:01.966Z,6.35
2022-12-28T21:39:31.461Z,5.97
2022-12-28T21:42:00.936Z,5.78
2022-12-28T21:44:30.264Z,6.30
2022-12-28T21:46:59.470Z,5.97
2022-12-28T21:49:28.883Z,5.80
2022-12-28T21:51:59.584Z,6.05
2022-12-28T21:54:29.169Z,5.35
2022-12-28T21:56:58.657Z,5.67
2022-12-28T21:59:27.909Z,5.78
2022-12-28T22:02:15.106Z,5.20
2022-12-28T22:05:03.619Z,5.45
2022-12-28T22:07:34.831Z,5.00
2022-12-28T22:10:23.803Z,4.92
2022-12-28T22:12:53.109Z,5.33
2022-12-28T22:15:43.158Z,6.10
2022-12-28T22:18:44.957Z,4.87
2022-12-28T22:20:54.369Z,5.20
2022-12-28T22:23:27.439Z,4.80
2022-12-28T22:25:55.213Z,4.87
2022-12-28T22:28:24.469Z,4.70
2022-12-28T22:30:53.665Z,4.70
2022-12-28T22:33:23.005Z,5.03
2022-12-28T22:35:52.260Z,5.08
2022-12-28T22:38:21.743Z,4.72
2022-12-28T22:41:00.140Z,5.25
2022-12-28T22:43:29.755Z,4.75
2022-12-28T22:46:08.633Z,4.33
2022-12-28T22:48:38.756Z,4.67
2022-12-28T22:51:13.415Z,4.30
2022-12-28T22:53:43.620Z,5.17
2022-12-28T22:56:19.002Z,6.00
2022-12-28T22:58:48.995Z,4.40
2022-12-28T23:01:20.154Z,5.70
2022-12-28T23:03:50.204Z,3.62
2022-12-28T23:06:21.266Z,3.80
2022-12-28T23:08:50.716Z,3.72
2022-12-28T23:11:39.398Z,3.50
2022-12-28T23:14:32.655Z,3.55
2022-12-28T23:17:02.971Z,2.95
2022-12-28T23:19:50.358Z,3.00
2022-12-28T23:22:40.864Z,2.80
2022-12-28T23:25:32.943Z,2.95
2022-12-28T23:28:04.007Z,2.93
2022-12-28T23:30:33.826Z,2.80
2022-12-28T23:33:03.476Z,2.92
2022-12-28T23:35:33.424Z,3.05
2022-12-28T23:38:02.724Z,2.90
2022-12-28T23:40:32.406Z,3.33
2022-12-28T23:43:01.708Z,2.90
2022-12-28T23:45:31.327Z,3.15
2022-12-28T23:48:00.545Z,3.00
2022-12-28T23:50:30.240Z,3.08
2022-12-28T23:52:59.537Z,2.90
2022-12-28T23:55:29.019Z,2.70
2022-12-28T23:57:58.243Z,2.55
